Aérodrome :
LOGIN :

S'inscrire | Disclaimer

   EN    FR    IT 

 










Légende :    VFR   VFR Marginal   IFR   IFR Intensif   IFR Très Intensif
Visi : 
Plafond : 
>= 8 km
>= 3000ft
5 à 8 km
1000 à 3000 ft
1500m à 5 km
500 à 1000 ft
800 à 1500m
200 à 500 ft
< 800m
< 200 ft
Symboles :   Orages  Brouillard  Fortes neiges  Fortes précipitations  Vent > 20 kt
SIGMETs :   Divers  Orages  Givrage  Turbulence  Onde Orograph.  Cendres Volcan.







- Altitude de l'aérodrome : 412 ft
- Code IATA : ORE
- Voir les cartes d'approche


LFOJ - Orleans

DERNIER METAR :
  • 181530Z AUTO 15010KT CAVOK 28/13 Q1009 NOSIG

METARs EXPIRÉS :
  • 181500Z AUTO 14011KT 110V170 CAVOK 28/14 Q1009 NOSIG
  • 181430Z AUTO 14011KT 090V160 CAVOK 29/16 Q1010 NOSIG
  • 181400Z AUTO 14010KT CAVOK 28/14 Q1010 BECMG 07005KT
  • 181330Z AUTO 10010KT 070V130 CAVOK 28/16 Q1010 NOSIG
  • 181300Z AUTO 10011KT CAVOK 28/16 Q1010 NOSIG

TAF TAF LFOJ
Valide du 18 à 15h jusqu'au 19 à 15h UTC


181400Z 1815/1915 13010KT CAVOK
BECMG 1900/1901 22020G35KT
TEMPO 1901/1905 4000 -SHRA BKN060CB
PROB40
TEMPO 1901/1904 22025G45KT 2000 TSRAGR BKN060CB
BECMG 1905/1907 24015G25KT
TEMPO 1912/1915 4000 SHRA BKN040TCU
Pas de NOTAMs connus pour ce terrain.



MET'MAP, la Météo Aéronautique d'un coup d'oeil ! - Copyright ORBIFLY Décembre 2007 - Disclaimer

ORBIFLY MET'MAP TEAM :

Programmation & Développement : Alexandra Zaïnal
Conception & Développement : Baudouin d'Aumeries
Co-Programmation & Développement : Marc-Olivier Méhu
Soutien technique & logistique : Manuel Goepfert

Contact : metmap@orbifly.com




SOURCES & CREDITS :

   NOAA